Time;durP1;ratioP1;P1;durP2;ratioP2;P2;SDS_P1;SDS_P2;PMS_P1;PMS_P2;Temp;Humidity;BMP_temperature;BMP_pressure;BME280_temperature;BME280_humidity;BME280_pressure;Samples;Min_cycle;Max_cycle;Signal;HPM_P1;HPM_P2
2022/07/10 00:01:11;;;;;;;6.03;4.00;;;16.30;99.90;;;;;;5075372;28;20662;-76
2022/07/10 00:03:39;;;;;;;6.20;4.33;;;16.20;99.90;;;;;;5074923;28;20291;-75
2022/07/10 00:06:07;;;;;;;6.73;4.73;;;16.30;99.90;;;;;;5075230;28;20665;-75
2022/07/10 00:08:36;;;;;;;6.40;4.73;;;16.20;99.90;;;;;;5075594;28;20302;-75
2022/07/10 00:11:06;;;;;;;6.10;5.20;;;16.20;99.90;;;;;;5075239;28;20294;-77
2022/07/10 00:13:34;;;;;;;7.90;5.17;;;16.20;99.90;;;;;;5075497;28;20291;-74
2022/07/10 00:16:03;;;;;;;7.20;5.13;;;16.20;99.90;;;;;;5075551;28;20222;-77
2022/07/10 00:18:31;;;;;;;7.13;5.77;;;16.10;99.90;;;;;;5074970;28;20281;-74
2022/07/10 00:20:59;;;;;;;6.60;5.10;;;16.10;99.90;;;;;;5074769;28;20310;-76
2022/07/10 00:23:27;;;;;;;5.30;4.80;;;16.10;99.90;;;;;;5074643;28;20216;-76
2022/07/10 00:25:55;;;;;;;5.53;4.77;;;16.00;99.90;;;;;;5074730;28;20242;-75
2022/07/10 00:28:25;;;;;;;6.77;4.90;;;16.00;99.90;;;;;;5075154;28;20212;-75
2022/07/10 00:30:53;;;;;;;6.67;4.83;;;16.00;99.90;;;;;;5074651;28;20526;-76
2022/07/10 00:33:22;;;;;;;6.10;4.97;;;15.90;99.90;;;;;;5075234;28;20284;-75
2022/07/10 00:35:50;;;;;;;7.23;5.20;;;15.80;99.90;;;;;;5074922;28;20251;-73
2022/07/10 00:38:18;;;;;;;5.90;5.27;;;15.80;99.90;;;;;;5074600;28;20206;-72
2022/07/10 00:40:46;;;;;;;5.57;5.07;;;15.80;99.90;;;;;;5074375;28;20208;-73
2022/07/10 00:43:15;;;;;;;6.73;5.20;;;15.70;99.90;;;;;;5074561;28;20239;-74
2022/07/10 00:45:45;;;;;;;7.97;5.37;;;15.70;99.90;;;;;;5074529;28;20247;-76
2022/07/10 00:48:13;;;;;;;8.03;5.53;;;15.70;99.90;;;;;;5074385;28;20207;-75
2022/07/10 00:50:42;;;;;;;8.30;6.13;;;15.60;99.90;;;;;;5075147;28;20239;-76
2022/07/10 00:53:10;;;;;;;7.13;6.43;;;15.50;99.90;;;;;;5083052;28;20669;-75
2022/07/10 00:55:40;;;;;;;8.17;7.20;;;15.40;99.90;;;;;;5078311;28;20242;-74
2022/07/10 00:58:10;;;;;;;7.73;6.93;;;15.50;99.90;;;;;;5074356;28;20277;-75
2022/07/10 01:00:39;;;;;;;9.27;7.57;;;15.40;99.90;;;;;;5073826;28;20673;-76
2022/07/10 01:03:09;;;;;;;9.70;7.53;;;15.30;99.90;;;;;;5074023;28;20251;-79
2022/07/10 01:05:38;;;;;;;8.93;7.60;;;15.30;99.90;;;;;;5073709;28;20215;-78
2022/07/10 01:08:06;;;;;;;8.33;7.53;;;15.30;99.90;;;;;;5074354;28;20207;-78
2022/07/10 01:10:35;;;;;;;9.73;7.50;;;15.20;99.90;;;;;;5072579;28;20247;-76
2022/07/10 01:13:03;;;;;;;8.17;7.30;;;15.10;99.90;;;;;;5074297;28;20287;-77
2022/07/10 01:15:35;;;;;;;8.77;7.80;;;15.10;99.90;;;;;;5074117;28;20307;-76
2022/07/10 01:18:04;;;;;;;11.10;7.37;;;15.10;99.90;;;;;;5073231;28;20204;-77
2022/07/10 01:20:34;;;;;;;8.03;7.23;;;15.00;99.90;;;;;;5073653;28;20208;-77
2022/07/10 01:23:04;;;;;;;9.07;7.03;;;15.00;99.90;;;;;;5073906;28;20208;-77
2022/07/10 01:25:32;;;;;;;11.53;7.27;;;15.00;99.90;;;;;;5053759;28;20216;-78
2022/07/10 01:28:00;;;;;;;9.33;6.87;;;14.90;99.90;;;;;;5053868;28;20220;-78
2022/07/10 01:30:29;;;;;;;8.43;6.60;;;14.90;99.90;;;;;;5053319;28;20209;-77
2022/07/10 01:32:57;;;;;;;8.00;7.03;;;14.80;99.90;;;;;;5053656;28;20227;-76
2022/07/10 01:35:25;;;;;;;7.27;6.60;;;14.80;99.90;;;;;;5053685;28;20283;-76
2022/07/10 01:37:53;;;;;;;8.07;7.37;;;14.80;99.90;;;;;;5053990;28;20208;-76
2022/07/10 01:40:23;;;;;;;7.53;6.67;;;14.70;99.90;;;;;;5052454;28;20722;-76
2022/07/10 01:42:51;;;;;;;7.47;6.77;;;14.70;99.90;;;;;;5058138;28;20218;-77
2022/07/10 01:45:20;;;;;;;8.00;7.20;;;14.70;99.90;;;;;;5073007;28;20267;-76
2022/07/10 01:47:48;;;;;;;9.07;7.23;;;14.70;99.90;;;;;;5073762;28;20261;-76
2022/07/10 01:50:16;;;;;;;10.10;7.47;;;14.60;99.90;;;;;;5073142;28;20653;-76
2022/07/10 01:52:44;;;;;;;8.20;7.40;;;14.60;99.90;;;;;;5073227;28;20207;-75
2022/07/10 01:55:12;;;;;;;8.60;7.73;;;14.60;99.90;;;;;;5073484;28;20294;-75
2022/07/10 01:57:42;;;;;;;8.10;7.30;;;14.60;99.90;;;;;;5073427;28;20303;-75
2022/07/10 02:00:12;;;;;;;7.87;6.87;;;14.60;99.90;;;;;;5073006;28;20257;-76
2022/07/10 02:02:40;;;;;;;7.63;6.67;;;14.60;99.90;;;;;;5073041;28;20239;-78
2022/07/10 02:05:08;;;;;;;7.50;6.63;;;14.60;99.90;;;;;;5065540;28;20227;-76
2022/07/10 02:07:36;;;;;;;8.60;7.67;;;14.50;99.90;;;;;;5073015;28;20635;-77
2022/07/10 02:10:05;;;;;;;8.13;7.33;;;14.50;99.90;;;;;;5073004;28;20567;-77
2022/07/10 02:12:33;;;;;;;8.03;7.10;;;14.50;99.90;;;;;;5072887;28;20303;-77
2022/07/10 02:15:03;;;;;;;8.30;7.50;;;14.50;99.90;;;;;;5072637;28;20203;-76
2022/07/10 02:17:32;;;;;;;8.43;7.50;;;14.50;99.90;;;;;;5072664;28;20218;-76
2022/07/10 02:20:01;;;;;;;8.17;6.90;;;14.40;99.90;;;;;;5072571;28;20296;-77
2022/07/10 02:22:29;;;;;;;8.50;7.70;;;14.40;99.90;;;;;;5071791;28;20313;-78
2022/07/10 02:24:58;;;;;;;9.13;7.80;;;14.30;99.90;;;;;;5072207;28;20262;-76
2022/07/10 02:27:26;;;;;;;10.97;8.03;;;14.30;99.90;;;;;;5072472;28;20235;-76
2022/07/10 02:29:54;;;;;;;9.57;8.67;;;14.30;99.90;;;;;;5072240;28;20213;-76
2022/07/10 02:32:24;;;;;;;9.50;8.50;;;14.20;99.90;;;;;;5072612;28;20578;-75
2022/07/10 02:34:52;;;;;;;8.93;8.13;;;14.30;99.90;;;;;;5072709;28;20222;-75
2022/07/10 02:37:20;;;;;;;9.83;8.93;;;14.20;99.90;;;;;;5072509;28;20241;-74
2022/07/10 02:39:48;;;;;;;10.00;9.03;;;14.20;99.90;;;;;;5073298;28;20203;-76
2022/07/10 02:42:17;;;;;;;9.47;8.57;;;14.20;99.90;;;;;;5073867;28;20580;-75
2022/07/10 02:44:45;;;;;;;10.83;9.73;;;14.20;99.90;;;;;;5072857;28;20231;-76
2022/07/10 02:47:13;;;;;;;10.07;9.07;;;14.20;99.90;;;;;;5072829;28;20645;-77
2022/07/10 02:49:44;;;;;;;10.27;9.27;;;14.20;99.90;;;;;;5072149;28;20218;-75
2022/07/10 02:52:12;;;;;;;10.00;8.97;;;14.20;99.90;;;;;;5072365;28;20196;-76
2022/07/10 02:54:40;;;;;;;11.27;8.70;;;14.20;99.90;;;;;;5072113;28;20239;-74
2022/07/10 02:57:08;;;;;;;9.27;8.37;;;14.20;99.90;;;;;;5072158;28;20251;-76
2022/07/10 02:59:36;;;;;;;9.80;7.83;;;14.20;99.90;;;;;;5071751;28;20243;-77
2022/07/10 03:02:05;;;;;;;10.00;8.03;;;14.20;99.90;;;;;;5072332;28;20214;-79
2022/07/10 03:04:34;;;;;;;9.00;8.10;;;14.20;99.90;;;;;;5071439;28;20300;-75
2022/07/10 03:07:04;;;;;;;9.47;8.40;;;14.20;99.90;;;;;;5072079;28;20378;-73
2022/07/10 03:09:32;;;;;;;9.20;8.27;;;14.20;99.90;;;;;;5071408;28;20241;-75
2022/07/10 03:12:01;;;;;;;10.10;9.10;;;14.20;99.90;;;;;;5071705;28;20386;-75
2022/07/10 03:14:29;;;;;;;9.20;8.30;;;14.20;99.90;;;;;;5071826;28;20235;-77
2022/07/10 03:16:57;;;;;;;9.60;8.70;;;14.10;99.90;;;;;;5072285;28;20203;-74
2022/07/10 03:19:25;;;;;;;9.50;8.40;;;14.10;99.90;;;;;;5071372;28;20295;-75
2022/07/10 03:21:53;;;;;;;11.40;9.23;;;14.00;99.90;;;;;;5071202;28;20270;-74
2022/07/10 03:24:23;;;;;;;10.90;8.40;;;14.00;99.90;;;;;;5066070;28;20204;-77
2022/07/10 03:26:51;;;;;;;9.13;8.23;;;14.00;99.90;;;;;;5051017;28;20247;-76
2022/07/10 03:29:19;;;;;;;9.30;8.30;;;14.00;99.90;;;;;;5065520;28;20253;-78
2022/07/10 03:31:50;;;;;;;10.23;8.47;;;13.90;99.90;;;;;;5055831;28;20296;-75
2022/07/10 03:34:18;;;;;;;9.47;8.50;;;13.90;99.90;;;;;;5052513;28;20208;-74
2022/07/10 03:36:46;;;;;;;10.07;9.00;;;13.90;99.90;;;;;;5055764;28;20302;-76
2022/07/10 03:39:14;;;;;;;9.67;8.83;;;13.80;99.90;;;;;;5054590;28;20247;-75
2022/07/10 03:41:44;;;;;;;11.50;9.20;;;13.80;99.90;;;;;;5055277;28;20302;-73
2022/07/10 03:44:12;;;;;;;11.73;9.40;;;13.70;99.90;;;;;;5055477;28;20552;-75
2022/07/10 03:46:40;;;;;;;11.07;9.97;;;13.70;99.90;;;;;;5055545;28;20269;-74
2022/07/10 03:49:08;;;;;;;11.13;9.53;;;13.70;99.90;;;;;;5055175;28;20200;-75
2022/07/10 03:51:37;;;;;;;10.73;9.60;;;13.60;99.90;;;;;;5055997;28;20334;-76
2022/07/10 03:54:05;;;;;;;12.33;10.27;;;13.60;99.90;;;;;;5057111;28;20293;-76
2022/07/10 03:59:20;;;;;;;10.77;9.67;;;13.60;99.90;;;;;;5057482;28;20715;-74
2022/07/10 04:01:48;;;;;;;10.80;9.70;;;13.60;99.90;;;;;;5061801;28;20219;-74
2022/07/10 04:04:17;;;;;;;11.70;9.73;;;13.70;99.90;;;;;;5060837;28;20251;-77
2022/07/10 04:06:45;;;;;;;10.80;9.37;;;13.70;99.90;;;;;;5055259;28;20243;-77
2022/07/10 04:09:13;;;;;;;10.07;9.07;;;13.70;99.90;;;;;;5055358;28;20574;-77
2022/07/10 04:11:41;;;;;;;10.57;9.43;;;13.80;99.90;;;;;;5055120;28;20641;-78
2022/07/10 04:14:10;;;;;;;9.50;8.43;;;13.80;99.90;;;;;;5054987;28;20216;-77
2022/07/10 04:16:39;;;;;;;10.00;9.10;;;13.90;99.90;;;;;;5054662;28;20287;-77
2022/07/10 04:19:07;;;;;;;9.93;9.00;;;13.90;99.90;;;;;;5055995;28;20212;-78
2022/07/10 04:21:36;;;;;;;10.03;8.97;;;13.90;99.90;;;;;;5074782;28;20235;-76
2022/07/10 04:24:05;;;;;;;9.73;8.37;;;14.00;99.90;;;;;;5074733;28;20673;-77
2022/07/10 04:26:34;;;;;;;9.50;8.60;;;14.10;99.90;;;;;;5074320;28;20239;-78
2022/07/10 04:29:02;;;;;;;8.60;7.70;;;14.10;99.90;;;;;;5074385;28;20250;-77
2022/07/10 04:31:31;;;;;;;8.60;7.80;;;14.10;99.90;;;;;;5073721;28;20794;-76
2022/07/10 04:34:00;;;;;;;8.40;7.60;;;14.20;99.90;;;;;;5074272;28;20237;-78
2022/07/10 04:36:30;;;;;;;8.40;7.13;;;14.20;99.90;;;;;;5074249;28;20665;-77
2022/07/10 04:38:58;;;;;;;8.70;7.80;;;14.20;99.90;;;;;;5073807;28;20235;-76
2022/07/10 04:41:27;;;;;;;8.50;7.70;;;14.20;99.90;;;;;;5074080;28;20242;-78
2022/07/10 04:43:55;;;;;;;8.40;7.50;;;14.20;99.90;;;;;;5073612;28;20273;-77
2022/07/10 04:46:23;;;;;;;8.53;7.63;;;14.30;99.90;;;;;;5072956;28;20306;-78
2022/07/10 04:48:51;;;;;;;8.30;7.37;;;14.30;99.90;;;;;;5073467;28;20200;-78
2022/07/10 04:51:23;;;;;;;8.10;7.30;;;14.30;99.90;;;;;;5073360;28;20211;-77
2022/07/10 04:53:51;;;;;;;8.13;7.07;;;14.30;99.90;;;;;;5072804;28;20610;-79
2022/07/10 04:56:19;;;;;;;8.40;7.43;;;14.30;99.90;;;;;;5073554;28;20282;-76
2022/07/10 04:58:48;;;;;;;8.33;7.50;;;14.40;99.90;;;;;;5073531;28;20204;-79
2022/07/10 05:01:20;;;;;;;8.30;7.50;;;14.30;99.90;;;;;;5072545;28;20222;-78
2022/07/10 05:03:49;;;;;;;8.50;7.30;;;14.30;99.90;;;;;;5071216;28;20200;-77
2022/07/10 05:06:17;;;;;;;8.47;7.07;;;14.40;99.90;;;;;;5073739;28;20656;-77
2022/07/10 05:08:46;;;;;;;8.83;7.23;;;14.40;99.90;;;;;;5072999;28;20657;-79
2022/07/10 05:11:15;;;;;;;8.40;7.57;;;14.40;99.90;;;;;;5073636;28;20667;-77
2022/07/10 05:13:45;;;;;;;8.73;7.90;;;14.50;99.90;;;;;;5073930;28;20257;-75
2022/07/10 05:16:14;;;;;;;7.97;7.17;;;14.50;99.90;;;;;;5074701;28;20243;-76
2022/07/10 05:18:47;;;;;;;7.90;7.03;;;14.60;99.90;;;;;;5074323;28;20215;-74
2022/07/10 05:21:16;;;;;;;7.33;6.60;;;14.70;99.90;;;;;;5074294;28;20571;-77
2022/07/10 05:23:44;;;;;;;7.60;6.90;;;14.80;99.90;;;;;;5073289;28;20261;-75
2022/07/10 05:26:13;;;;;;;10.50;7.50;;;14.90;99.90;;;;;;5073297;28;20265;-77
2022/07/10 05:28:42;;;;;;;8.13;7.10;;;14.90;99.90;;;;;;5072796;28;20673;-76
2022/07/10 05:31:10;;;;;;;7.73;7.03;;;14.90;99.90;;;;;;5073100;28;20270;-78
2022/07/10 05:33:40;;;;;;;8.03;7.30;;;14.90;99.90;;;;;;5073301;28;20209;-74
2022/07/10 05:36:09;;;;;;;8.70;7.57;;;14.90;99.90;;;;;;5073351;28;20257;-78
2022/07/10 05:38:37;;;;;;;8.93;7.43;;;14.90;99.90;;;;;;5072866;28;20208;-77
2022/07/10 05:41:06;;;;;;;8.73;7.20;;;14.90;99.90;;;;;;5072673;28;20250;-78
2022/07/10 05:43:36;;;;;;;8.53;7.43;;;15.00;99.90;;;;;;5073094;28;20306;-77
2022/07/10 05:46:05;;;;;;;7.80;6.90;;;15.00;99.90;;;;;;5072583;28;20227;-78
2022/07/10 05:48:34;;;;;;;8.40;7.37;;;15.00;99.90;;;;;;5073129;28;20612;-77
2022/07/10 05:51:02;;;;;;;8.60;7.77;;;15.00;99.90;;;;;;5072597;28;20235;-77
2022/07/10 05:53:51;;;;;;;8.57;6.77;;;15.20;99.90;;;;;;5072772;28;20204;-78
2022/07/10 05:56:19;;;;;;;7.63;6.90;;;15.40;99.90;;;;;;5072433;28;20227;-78
2022/07/10 05:58:49;;;;;;;7.27;6.57;;;15.50;99.90;;;;;;5071938;28;20318;-79
2022/07/10 06:01:18;;;;;;;8.20;6.00;;;15.70;99.90;;;;;;5072527;28;20676;-77
2022/07/10 06:03:47;;;;;;;8.20;5.60;;;16.20;99.90;;;;;;5072568;28;20250;-78
2022/07/10 06:06:15;;;;;;;6.27;5.67;;;16.40;99.90;;;;;;5072645;28;20230;-77
2022/07/10 06:08:44;;;;;;;8.83;5.93;;;16.80;99.90;;;;;;5072340;28;20212;-77
2022/07/10 06:11:13;;;;;;;7.50;6.10;;;16.90;99.90;;;;;;5072294;28;20242;-77
2022/07/10 06:13:41;;;;;;;7.43;5.70;;;16.70;99.90;;;;;;5072621;28;20290;-78
2022/07/10 06:16:11;;;;;;;6.90;6.20;;;16.70;99.90;;;;;;5072126;28;20270;-78
2022/07/10 06:18:40;;;;;;;7.83;6.37;;;16.70;99.90;;;;;;5072393;28;20211;-78
2022/07/10 06:21:09;;;;;;;6.97;6.27;;;16.70;99.90;;;;;;5072341;28;20235;-80
2022/07/10 06:23:37;;;;;;;8.53;6.57;;;16.50;99.90;;;;;;5072322;28;20231;-79
2022/07/10 06:26:05;;;;;;;7.43;6.50;;;16.50;99.90;;;;;;5072219;28;20257;-75
2022/07/10 06:28:35;;;;;;;9.33;6.60;;;16.30;99.90;;;;;;5072317;28;20208;-77
2022/07/10 06:31:04;;;;;;;8.47;7.27;;;16.10;99.90;;;;;;5063334;28;20682;-77
2022/07/10 06:33:35;;;;;;;10.30;7.93;;;15.90;99.90;;;;;;5051696;28;20690;-78
2022/07/10 06:36:03;;;;;;;8.13;7.40;;;15.80;99.90;;;;;;5050986;28;20661;-78
2022/07/10 06:38:32;;;;;;;8.80;7.97;;;15.90;99.90;;;;;;5051624;28;20212;-80
2022/07/10 06:41:00;;;;;;;8.33;7.40;;;15.70;99.90;;;;;;5051244;28;20268;-79
2022/07/10 06:43:29;;;;;;;8.30;7.60;;;15.70;99.90;;;;;;5062904;28;20211;-79
2022/07/10 06:45:57;;;;;;;9.63;7.80;;;15.80;99.90;;;;;;5070855;28;20243;-77
2022/07/10 06:48:27;;;;;;;10.73;8.80;;;15.80;99.90;;;;;;5070451;28;20254;-78
2022/07/10 06:50:57;;;;;;;9.03;7.83;;;15.80;99.90;;;;;;5068749;28;20282;-76
2022/07/10 06:53:26;;;;;;;7.37;6.53;;;16.30;99.90;;;;;;5071323;28;20290;-76
2022/07/10 06:55:55;;;;;;;6.37;5.80;;;17.40;99.90;;;;;;5068542;28;20204;-77
2022/07/10 06:58:23;;;;;;;7.17;6.00;;;17.90;99.90;;;;;;5071429;28;20635;-77
2022/07/10 07:00:52;;;;;;;7.90;6.90;;;17.80;99.90;;;;;;5070846;28;20595;-78
2022/07/10 07:03:20;;;;;;;6.73;6.10;;;17.60;99.90;;;;;;5071360;28;20204;-77
2022/07/10 07:05:48;;;;;;;6.80;6.10;;;17.40;99.90;;;;;;5071507;28;20231;-78
2022/07/10 07:08:18;;;;;;;7.30;6.60;;;17.50;99.90;;;;;;5071163;28;20657;-77
2022/07/10 07:10:46;;;;;;;7.17;6.40;;;17.40;99.90;;;;;;5071669;28;20223;-76
2022/07/10 07:13:14;;;;;;;6.50;5.90;;;17.70;99.90;;;;;;5071668;28;20633;-79
2022/07/10 07:15:49;;;;;;;8.20;5.90;;;17.90;99.90;;;;;;5071622;28;20246;-78
2022/07/10 07:18:21;;;;;;;6.60;5.90;;;18.00;99.90;;;;;;5071238;28;20205;-79
2022/07/10 07:23:36;;;;;;;6.33;5.47;;;18.10;99.90;;;;;;5071418;28;20616;-78
2022/07/10 07:26:04;;;;;;;5.73;4.97;;;18.20;99.90;;;;;;5071512;28;20242;-80
2022/07/10 07:28:33;;;;;;;5.90;4.80;;;18.50;99.90;;;;;;5071337;28;20310;-76
2022/07/10 07:31:01;;;;;;;4.70;4.30;;;18.80;99.90;;;;;;5070831;28;20294;-79
2022/07/10 07:33:29;;;;;;;5.43;4.57;;;18.70;99.90;;;;;;5071354;28;20230;-80
2022/07/10 07:35:57;;;;;;;6.20;4.60;;;18.90;99.90;;;;;;5071232;28;20216;-76
2022/07/10 07:38:26;;;;;;;5.27;4.30;;;19.20;99.90;;;;;;5070976;28;20679;-76
2022/07/10 07:40:55;;;;;;;6.97;4.30;;;20.10;99.90;;;;;;5071144;28;20615;-78
2022/07/10 07:43:23;;;;;;;6.73;4.50;;;20.90;99.90;;;;;;5071301;28;20204;-77
2022/07/10 07:45:52;;;;;;;5.57;4.13;;;20.60;99.90;;;;;;5071399;28;20242;-78
2022/07/10 07:48:20;;;;;;;5.07;4.40;;;20.00;99.90;;;;;;5071009;28;20262;-77
2022/07/10 07:50:48;;;;;;;5.00;4.07;;;19.40;99.90;;;;;;5071049;28;20207;-74
2022/07/10 07:53:16;;;;;;;5.03;4.20;;;20.30;99.90;;;;;;5070869;28;20353;-79
2022/07/10 07:55:45;;;;;;;6.17;3.87;;;21.10;99.90;;;;;;5070739;28;20199;-76
2022/07/10 07:58:14;;;;;;;5.07;3.47;;;22.10;99.90;;;;;;5071006;28;20257;-75
2022/07/10 08:00:42;;;;;;;4.83;3.27;;;22.40;99.90;;;;;;5070750;28;20298;-78
2022/07/10 08:03:11;;;;;;;4.87;3.47;;;21.60;99.90;;;;;;5071106;28;20306;-77
2022/07/10 08:05:39;;;;;;;5.77;3.70;;;21.30;99.90;;;;;;5071165;28;20211;-76
2022/07/10 08:08:08;;;;;;;5.53;3.30;;;22.20;99.90;;;;;;5071119;28;20310;-78
2022/07/10 08:10:37;;;;;;;4.03;3.00;;;23.40;99.90;;;;;;5070916;28;20222;-78
2022/07/10 08:13:12;;;;;;;5.80;2.80;;;24.10;99.90;;;;;;5070780;28;20199;-76
2022/07/10 08:15:42;;;;;;;3.07;2.50;;;25.00;99.90;;;;;;5050706;28;20302;-75
2022/07/10 08:18:10;;;;;;;4.40;2.60;;;24.70;99.90;;;;;;5050896;28;20283;-74
2022/07/10 08:20:39;;;;;;;4.18;2.65;;;24.90;99.90;;;;;;5051725;28;20215;-78
2022/07/10 08:23:07;;;;;;;3.63;2.10;;;25.60;99.90;;;;;;5054151;28;20251;-75
2022/07/10 08:25:35;;;;;;;4.78;2.05;;;26.00;99.90;;;;;;5054190;28;20349;-78
2022/07/10 08:28:05;;;;;;;2.80;2.05;;;26.10;99.90;;;;;;5054160;28;20714;-78
2022/07/10 08:30:33;;;;;;;3.30;1.98;;;26.90;99.90;;;;;;5060171;28;20278;-77
2022/07/10 08:33:03;;;;;;;5.10;2.10;;;25.90;99.80;;;;;;5074530;28;20289;-76
2022/07/10 08:35:31;;;;;;;4.43;2.00;;;24.60;99.90;;;;;;5074007;28;20208;-75
2022/07/10 08:37:59;;;;;;;3.83;2.10;;;23.00;99.90;;;;;;5074508;28;20478;-75
2022/07/10 08:40:34;;;;;;;5.50;2.10;;;22.30;99.90;;;;;;5073787;28;20673;-77
2022/07/10 08:43:03;;;;;;;5.10;1.90;;;22.20;99.90;;;;;;5073871;28;20295;-75
2022/07/10 08:45:33;;;;;;;2.97;1.50;;;23.50;99.90;;;;;;5074695;28;20204;-75
2022/07/10 08:48:05;;;;;;;3.47;1.93;;;24.60;99.90;;;;;;5074239;28;20240;-77
2022/07/10 08:50:38;;;;;;;2.77;1.40;;;25.30;99.90;;;;;;5073910;28;20295;-78
2022/07/10 08:53:13;;;;;;;3.40;1.80;;;24.30;99.90;;;;;;5073595;28;20268;-76
2022/07/10 08:55:41;;;;;;;6.53;1.60;;;22.90;99.90;;;;;;5073862;28;20253;-76
2022/07/10 08:58:11;;;;;;;2.50;1.63;;;23.80;99.90;;;;;;5073881;28;20231;-77
2022/07/10 09:00:39;;;;;;;5.00;1.90;;;24.20;99.90;;;;;;5073061;28;20226;-77
2022/07/10 09:03:09;;;;;;;3.38;1.67;;;24.80;99.90;;;;;;5073862;28;20238;-79
2022/07/10 09:05:37;;;;;;;3.85;1.55;;;25.60;99.60;;;;;;5075331;28;20549;-80
2022/07/10 09:08:21;;;;;;;3.60;1.40;;;26.20;99.90;;;;;;5073312;28;20284;-78
2022/07/10 09:10:50;;;;;;;3.20;1.67;;;27.10;95.50;;;;;;5073333;28;20299;-77
2022/07/10 09:13:18;;;;;;;3.50;1.50;;;26.90;95.20;;;;;;5073012;28;20756;-76
2022/07/10 09:15:49;;;;;;;4.40;1.60;;;27.00;95.20;;;;;;5073202;28;20276;-75
2022/07/10 09:18:26;;;;;;;3.60;1.63;;;25.50;94.30;;;;;;5073482;28;20207;-78
2022/07/10 09:20:54;;;;;;;4.32;1.90;;;24.40;97.40;;;;;;5073210;28;20207;-76
2022/07/10 09:23:25;;;;;;;3.23;1.50;;;23.80;98.60;;;;;;5073318;28;20208;-77
2022/07/10 09:25:54;;;;;;;5.35;1.52;;;24.70;98.60;;;;;;5073400;28;20196;-75
2022/07/10 09:28:24;;;;;;;3.92;1.60;;;24.50;98.80;;;;;;5073522;28;20287;-77
2022/07/10 09:30:52;;;;;;;3.15;1.50;;;24.80;98.70;;;;;;5073380;28;20203;-75
2022/07/10 09:33:26;;;;;;;3.47;1.50;;;25.90;95.90;;;;;;5072186;28;20290;-78
2022/07/10 09:36:08;;;;;;;3.78;1.52;;;26.30;93.80;;;;;;5073333;28;20546;-76
2022/07/10 09:38:51;;;;;;;2.00;1.48;;;26.50;93.10;;;;;;5072794;28;20649;-78
2022/07/10 09:41:21;;;;;;;3.40;1.42;;;27.50;94.60;;;;;;5073383;28;20719;-77
2022/07/10 09:43:51;;;;;;;3.97;1.25;;;28.20;91.50;;;;;;5072700;28;20676;-75
2022/07/10 09:46:21;;;;;;;3.72;1.30;;;27.90;89.70;;;;;;5072845;28;20269;-78
2022/07/10 09:49:05;;;;;;;3.90;1.40;;;26.20;91.50;;;;;;5072359;28;20231;-76
2022/07/10 09:51:36;;;;;;;4.70;1.45;;;25.20;92.50;;;;;;5072711;28;20238;-79
2022/07/10 09:54:06;;;;;;;3.70;1.55;;;25.70;92.20;;;;;;5072536;28;20849;-76
2022/07/10 09:56:41;;;;;;;1.90;1.20;;;26.30;90.70;;;;;;5072773;28;20188;-75
2022/07/10 09:59:11;;;;;;;2.83;1.60;;;26.80;90.70;;;;;;5072488;28;20251;-78
2022/07/10 10:01:46;;;;;;;2.65;1.35;;;27.10;89.60;;;;;;5072336;28;20730;-76
2022/07/10 10:04:18;;;;;;;2.65;1.30;;;27.60;89.90;;;;;;5072432;28;20199;-76
2022/07/10 10:06:51;;;;;;;4.15;1.50;;;28.20;84.90;;;;;;5072560;28;20195;-76
2022/07/10 10:09:24;;;;;;;3.75;1.42;;;28.30;89.30;;;;;;5072305;28;20247;-77
2022/07/10 10:11:57;;;;;;;2.97;1.40;;;28.40;87.30;;;;;;5072862;28;20262;-79
2022/07/10 10:14:28;;;;;;;3.03;1.48;;;28.40;86.10;;;;;;5072671;28;20297;-76
2022/07/10 10:16:56;;;;;;;2.35;1.38;;;28.10;83.90;;;;;;5073034;28;20299;-75
2022/07/10 10:22:15;;;;;;;2.83;1.40;;;28.70;81.50;;;;;;5072281;28;20235;-78
2022/07/10 10:24:45;;;;;;;3.10;1.30;;;28.50;82.90;;;;;;5072484;28;20203;-74
2022/07/10 10:27:15;;;;;;;3.58;1.35;;;28.30;81.60;;;;;;5072187;28;20249;-80
2022/07/10 10:29:45;;;;;;;1.88;1.20;;;27.90;80.70;;;;;;5071861;28;20243;-76
2022/07/10 10:32:14;;;;;;;2.83;1.08;;;27.90;84.20;;;;;;5072387;28;20230;-77
2022/07/10 10:34:45;;;;;;;3.40;1.50;;;27.70;82.80;;;;;;5072321;28;20577;-77
2022/07/10 10:37:37;;;;;;;2.95;1.30;;;28.00;82.80;;;;;;5072990;28;20286;-76
2022/07/10 10:40:07;;;;;;;3.85;1.50;;;28.60;82.10;;;;;;5071726;28;20249;-78
2022/07/10 10:42:36;;;;;;;2.75;1.40;;;27.40;79.80;;;;;;5071586;28;20251;-76
2022/07/10 10:45:32;;;;;;;4.63;1.52;;;26.80;83.70;;;;;;5069327;28;20665;-80
2022/07/10 10:48:03;;;;;;;2.85;1.40;;;26.50;83.70;;;;;;5066617;28;20220;-75
2022/07/10 10:50:53;;;;;;;6.03;1.30;;;25.40;83.80;;;;;;5073224;28;20195;-75
2022/07/10 10:53:26;;;;;;;3.93;1.50;;;25.40;87.60;;;;;;5072634;28;20231;-74
2022/07/10 10:56:23;;;;;;;2.90;1.30;;;25.60;86.60;;;;;;5072350;28;20215;-75
2022/07/10 10:58:52;;;;;;;5.33;1.53;;;25.00;89.60;;;;;;5071943;28;20210;-74
2022/07/10 11:01:32;;;;;;;3.27;1.20;;;25.50;87.70;;;;;;5072578;28;20235;-75
2022/07/10 11:04:19;;;;;;;4.50;1.50;;;26.00;85.10;;;;;;5053638;28;20216;-73
2022/07/10 11:06:50;;;;;;;2.95;1.27;;;26.50;86.20;;;;;;5052102;28;20216;-74
2022/07/10 11:09:24;;;;;;;1.38;1.05;;;26.40;85.50;;;;;;5051239;28;20255;-74
2022/07/10 11:12:04;;;;;;;2.28;1.20;;;26.00;84.80;;;;;;5051896;28;20208;-77
2022/07/10 11:14:33;;;;;;;4.40;1.30;;;25.30;83.20;;;;;;5071548;28;20207;-75
2022/07/10 11:17:02;;;;;;;2.10;1.30;;;24.70;85.10;;;;;;5072104;28;20219;-75
2022/07/10 11:19:33;;;;;;;2.60;1.30;;;24.00;86.10;;;;;;5071481;28;20207;-75
2022/07/10 11:22:36;;;;;;;3.57;1.30;;;24.30;86.80;;;;;;5071669;28;20246;-78
2022/07/10 11:25:17;;;;;;;2.77;1.20;;;24.30;84.60;;;;;;5055489;28;20302;-75
2022/07/10 11:28:07;;;;;;;7.17;1.27;;;24.90;82.50;;;;;;5071387;28;20719;-76
2022/07/10 11:30:52;;;;;;;1.30;0.90;;;25.10;81.60;;;;;;5070993;28;20315;-76
2022/07/10 11:33:21;;;;;;;2.83;1.17;;;25.40;79.90;;;;;;5069913;28;20207;-75
2022/07/10 11:35:51;;;;;;;1.83;1.00;;;25.60;79.00;;;;;;5071273;28;20780;-77
2022/07/10 11:38:22;;;;;;;3.08;1.10;;;25.60;81.30;;;;;;5064267;28;20286;-77
2022/07/10 11:40:53;;;;;;;3.00;1.00;;;25.10;81.60;;;;;;5067387;28;20206;-76
2022/07/10 11:43:23;;;;;;;2.17;1.03;;;25.30;81.20;;;;;;5066707;28;20235;-74
2022/07/10 11:45:54;;;;;;;1.97;1.10;;;25.10;81.90;;;;;;5069243;28;20269;-74
2022/07/10 11:48:24;;;;;;;4.93;1.23;;;24.80;82.80;;;;;;5070566;28;20776;-74
2022/07/10 11:50:53;;;;;;;2.53;1.13;;;24.40;84.40;;;;;;5070298;28;20251;-74
2022/07/10 11:53:28;;;;;;;2.57;1.00;;;24.80;82.10;;;;;;5067830;28;20247;-75
2022/07/10 11:55:57;;;;;;;4.03;1.10;;;24.90;82.40;;;;;;5069307;28;20205;-76
2022/07/10 11:58:25;;;;;;;2.00;1.20;;;24.80;82.70;;;;;;5071233;28;20633;-74
2022/07/10 12:01:02;;;;;;;3.77;1.00;;;24.60;84.00;;;;;;5073180;28;20306;-77
2022/07/10 12:03:30;;;;;;;1.73;1.20;;;24.00;84.90;;;;;;5074654;28;20625;-76
2022/07/10 12:06:04;;;;;;;4.37;1.30;;;23.40;83.70;;;;;;5071391;28;20200;-76
2022/07/10 12:08:44;;;;;;;2.60;1.30;;;23.20;85.50;;;;;;5071388;28;20258;-74
2022/07/10 12:11:15;;;;;;;3.80;1.10;;;23.10;82.80;;;;;;5071161;28;20204;-77
2022/07/10 12:13:44;;;;;;;3.00;1.10;;;23.10;86.10;;;;;;5068478;28;20199;-76
2022/07/10 12:16:12;;;;;;;3.67;1.20;;;23.40;85.80;;;;;;5074602;28;21281;-77
2022/07/10 12:18:42;;;;;;;2.10;1.10;;;23.40;84.20;;;;;;5074109;28;20203;-77
2022/07/10 12:21:12;;;;;;;5.90;1.20;;;23.10;84.20;;;;;;5073967;28;20230;-76
2022/07/10 12:23:46;;;;;;;2.87;1.20;;;23.20;85.30;;;;;;5070599;28;20246;-74
2022/07/10 12:26:14;;;;;;;3.27;1.20;;;23.10;88.60;;;;;;5074451;28;20256;-75
2022/07/10 12:28:53;;;;;;;2.20;1.00;;;23.40;88.20;;;;;;5072481;28;20259;-77
2022/07/10 12:31:23;;;;;;;2.53;1.00;;;23.70;87.00;;;;;;5072210;28;20265;-77
2022/07/10 12:33:54;;;;;;;1.20;0.87;;;23.50;84.90;;;;;;5074225;28;20207;-78
2022/07/10 12:36:23;;;;;;;4.00;1.10;;;23.50;85.70;;;;;;5071289;28;20203;-74
2022/07/10 12:38:57;;;;;;;2.77;1.13;;;22.80;85.40;;;;;;5071876;28;20219;-77
2022/07/10 12:41:26;;;;;;;4.30;1.10;;;23.10;86.40;;;;;;5067482;28;20215;-76
2022/07/10 12:43:55;;;;;;;4.80;1.23;;;22.90;86.20;;;;;;5067638;28;20203;-77
2022/07/10 12:46:24;;;;;;;2.30;1.30;;;22.40;84.90;;;;;;5067978;28;20242;-77
2022/07/10 12:49:07;;;;;;;2.83;1.30;;;22.20;86.60;;;;;;5073588;28;20227;-76
2022/07/10 12:51:43;;;;;;;4.60;1.30;;;22.00;85.90;;;;;;5074111;28;20226;-76
2022/07/10 12:54:36;;;;;;;2.80;1.07;;;21.80;85.40;;;;;;5080341;28;20206;-76
2022/07/10 12:57:05;;;;;;;1.43;1.00;;;21.70;87.50;;;;;;5094326;28;20637;-75
2022/07/10 12:59:34;;;;;;;2.20;1.00;;;22.00;89.40;;;;;;5089508;28;20630;-74
2022/07/10 13:02:17;;;;;;;2.50;1.10;;;22.10;90.00;;;;;;5072956;28;20257;-76
2022/07/10 13:04:55;;;;;;;3.30;1.20;;;22.20;87.60;;;;;;5074315;28;20212;-73
2022/07/10 13:07:33;;;;;;;3.53;1.10;;;22.40;87.80;;;;;;5073922;28;20230;-77
2022/07/10 13:10:05;;;;;;;1.80;1.10;;;22.10;85.10;;;;;;5073859;28;20219;-77